createdAt,value
2022-12-04T00:01:23.075Z,102298.59
2022-12-04T00:06:20.587Z,102302.97
2022-12-04T00:11:20.169Z,102288.97
2022-12-04T00:16:19.610Z,102295.03
2022-12-04T00:21:17.447Z,102292.41
2022-12-04T00:26:16.280Z,102301.19
2022-12-04T00:31:16.009Z,102292.47
2022-12-04T00:36:15.286Z,102292.50
2022-12-04T00:41:13.950Z,102282.88
2022-12-04T00:46:10.553Z,102295.06
2022-12-04T00:51:10.357Z,102284.56
2022-12-04T00:56:09.394Z,102281.94
2022-12-04T01:01:10.485Z,102282.81
2022-12-04T01:06:07.498Z,102286.34
2022-12-04T01:11:06.783Z,102283.72
2022-12-04T01:16:03.642Z,102284.63
2022-12-04T01:21:00.181Z,102283.72
2022-12-04T01:25:58.649Z,102286.31
2022-12-04T01:31:10.082Z,102281.09
2022-12-04T01:36:09.612Z,102268.91
2022-12-04T01:41:07.627Z,102259.31
2022-12-04T01:46:04.310Z,102274.13
2022-12-04T01:51:05.607Z,102270.66
2022-12-04T01:56:03.206Z,102269.81
2022-12-04T02:01:07.921Z,102274.13
2022-12-04T02:06:06.480Z,102275.78
2022-12-04T02:11:03.014Z,102275.84
2022-12-04T02:16:37.204Z,102266.22
2022-12-04T02:21:38.604Z,102261.81
2022-12-04T02:26:48.708Z,102251.34
2022-12-04T02:32:06.451Z,102248.78
2022-12-04T02:37:11.214Z,102250.56
2022-12-04T02:42:14.276Z,102249.69
2022-12-04T02:47:14.947Z,102251.41
2022-12-04T02:52:13.699Z,102240.91
2022-12-04T02:57:16.058Z,102242.63
2022-12-04T03:02:17.502Z,102263.56
2022-12-04T03:07:18.197Z,102248.75
2022-12-04T03:12:14.801Z,102254.00
2022-12-04T03:17:16.789Z,102249.63
2022-12-04T03:22:15.699Z,102249.63
2022-12-04T03:27:40.555Z,102246.16
2022-12-04T03:32:43.405Z,102248.78
2022-12-04T03:37:42.601Z,102250.53
2022-12-04T03:43:00.921Z,102249.56
2022-12-04T03:48:03.787Z,102246.91
2022-12-04T03:53:07.643Z,102253.03
2022-12-04T03:58:08.551Z,102242.59
2022-12-04T04:03:13.613Z,102240.84
2022-12-04T04:08:33.697Z,102235.59
2022-12-04T04:14:03.679Z,102233.81
2022-12-04T04:19:19.308Z,102239.97
2022-12-04T04:24:28.063Z,102234.69
2022-12-04T04:29:25.731Z,102242.53
2022-12-04T04:34:38.124Z,102241.69
2022-12-04T04:39:38.891Z,102228.59
2022-12-04T04:44:38.377Z,102238.22
2022-12-04T04:49:35.984Z,102246.94
2022-12-04T04:54:34.010Z,102240.81
2022-12-04T04:59:30.608Z,102233.00
2022-12-04T05:04:27.100Z,102240.00
2022-12-04T05:09:23.746Z,102246.94
2022-12-04T05:14:20.311Z,102260.06
2022-12-04T05:19:35.481Z,102256.56
2022-12-04T05:24:31.982Z,102257.44
2022-12-04T05:29:31.636Z,102258.31
2022-12-04T05:34:32.263Z,102260.91
2022-12-04T05:39:28.809Z,102246.06
2022-12-04T05:44:25.327Z,102258.25
2022-12-04T05:49:21.955Z,102249.53
2022-12-04T05:54:19.022Z,102247.75
2022-12-04T05:59:15.443Z,102247.78
2022-12-04T06:04:12.222Z,102255.63
2022-12-04T06:09:09.131Z,102253.00
2022-12-04T06:14:08.333Z,102238.13
2022-12-04T06:19:11.578Z,102248.59
2022-12-04T06:24:10.363Z,102254.69
2022-12-04T06:29:06.890Z,102259.03
2022-12-04T06:34:03.474Z,102261.66
2022-12-04T06:39:00.009Z,102260.78
2022-12-04T06:43:56.633Z,102259.91
2022-12-04T06:48:55.164Z,102255.53
2022-12-04T06:53:52.296Z,102255.53
2022-12-04T06:58:49.299Z,102260.72
2022-12-04T07:03:51.062Z,102273.84
2022-12-04T07:08:50.330Z,102272.97
2022-12-04T07:13:47.410Z,102274.66
2022-12-04T07:18:43.916Z,102267.66
2022-12-04T07:23:40.706Z,102260.69
2022-12-04T07:28:37.903Z,102268.53
2022-12-04T07:33:34.256Z,102275.50
2022-12-04T07:38:31.766Z,102263.28
2022-12-04T07:43:29.439Z,102259.75
2022-12-04T07:48:31.733Z,102264.97
2022-12-04T07:54:25.702Z,102274.56
2022-12-04T07:59:24.434Z,102266.59
2022-12-04T08:04:20.986Z,102287.47
2022-12-04T08:09:17.586Z,102289.25
2022-12-04T08:14:14.822Z,102289.25
2022-12-04T08:19:11.433Z,102281.41
2022-12-04T08:24:09.159Z,102277.91
2022-12-04T08:29:06.585Z,102284.91
2022-12-04T08:34:06.291Z,102285.75
2022-12-04T08:39:03.669Z,102276.13
2022-12-04T08:44:01.024Z,102280.47
2022-12-04T08:48:58.098Z,102278.72
2022-12-04T08:53:55.552Z,102280.44
2022-12-04T08:58:52.476Z,102281.28
2022-12-04T09:03:49.043Z,102263.81
2022-12-04T09:08:45.695Z,102274.13
2022-12-04T09:13:42.759Z,102266.22
2022-12-04T09:18:40.042Z,102272.31
2022-12-04T09:23:38.327Z,102268.75
2022-12-04T09:28:34.987Z,102264.34
2022-12-04T09:33:33.212Z,102270.47
2022-12-04T09:38:30.936Z,102266.91
2022-12-04T09:43:27.505Z,102264.28
2022-12-04T09:48:31.674Z,102265.06
2022-12-04T09:53:42.667Z,102259.78
2022-12-04T09:58:50.914Z,102245.78
2022-12-04T10:03:53.776Z,102243.94
2022-12-04T10:09:21.486Z,102238.63
2022-12-04T10:14:34.183Z,102230.81
2022-12-04T10:19:37.617Z,102245.47
2022-12-04T10:24:51.003Z,102240.19
2022-12-04T10:29:59.726Z,102231.47
2022-12-04T10:35:04.369Z,102208.75
2022-12-04T10:40:24.409Z,102209.59
2022-12-04T10:45:24.579Z,102239.09
2022-12-04T10:50:34.698Z,102196.50
2022-12-04T10:55:38.506Z,102233.78
2022-12-04T11:00:36.297Z,102225.03
2022-12-04T11:06:05.115Z,102201.59
2022-12-04T11:11:11.574Z,102214.50
2022-12-04T11:16:09.046Z,102211.81
2022-12-04T11:21:13.708Z,102210.03
2022-12-04T11:26:16.235Z,102203.94
2022-12-04T11:31:20.124Z,102210.81
2022-12-04T11:36:23.231Z,102203.88
2022-12-04T11:41:28.540Z,102176.06
2022-12-04T11:46:29.006Z,102177.69
2022-12-04T11:51:41.922Z,102191.47
2022-12-04T11:56:47.420Z,102192.38
2022-12-04T12:02:12.574Z,102185.34
2022-12-04T12:07:21.861Z,102169.69
2022-12-04T12:12:29.735Z,102169.56
2022-12-04T12:17:41.201Z,102181.69
2022-12-04T12:23:17.655Z,102171.16
2022-12-04T12:28:51.735Z,102177.22
2022-12-04T12:34:29.232Z,102181.53
2022-12-04T12:39:52.921Z,102166.72
2022-12-04T12:45:01.766Z,102158.13
2022-12-04T12:50:27.930Z,102127.50
2022-12-04T12:55:49.059Z,102131.72
2022-12-04T13:01:00.268Z,102152.47
2022-12-04T13:06:15.092Z,102147.19
2022-12-04T13:11:13.834Z,102135.66
2022-12-04T13:16:19.363Z,102126.88
2022-12-04T13:21:42.733Z,102126.72
2022-12-04T13:26:59.150Z,102116.97
2022-12-04T13:32:44.226Z,102102.03
2022-12-04T13:37:54.525Z,102102.84
2022-12-04T13:42:54.445Z,102093.28
2022-12-04T13:48:08.738Z,102086.25
2022-12-04T13:53:06.734Z,102087.06
2022-12-04T13:58:16.875Z,102101.94
2022-12-04T14:03:33.364Z,102104.53
2022-12-04T14:08:37.239Z,102110.59
2022-12-04T14:19:33.103Z,102128.09
2022-12-04T14:24:37.864Z,102118.41
2022-12-04T14:29:55.304Z,102120.09
2022-12-04T14:35:04.173Z,102106.94
2022-12-04T14:40:13.792Z,102108.69
2022-12-04T14:45:49.107Z,102115.69
2022-12-04T14:51:21.841Z,102111.25
2022-12-04T14:56:39.149Z,102106.94
2022-12-04T15:01:46.688Z,102112.03
2022-12-04T15:07:02.834Z,102103.25
2022-12-04T15:12:42.641Z,102097.22
2022-12-04T15:17:45.574Z,102085.88
2022-12-04T15:22:47.982Z,102093.59
2022-12-04T15:27:50.401Z,102084.88
2022-12-04T15:32:57.022Z,102090.94
2022-12-04T15:37:59.034Z,102084.06
2022-12-04T15:43:13.022Z,102092.69
2022-12-04T15:48:10.233Z,102094.44
2022-12-04T15:53:15.618Z,102044.06
2022-12-04T15:58:37.254Z,102078.53
2022-12-04T16:03:43.995Z,102074.91
2022-12-04T16:08:56.603Z,102055.78
2022-12-04T16:14:19.894Z,102082.69
2022-12-04T16:19:39.160Z,102080.97
2022-12-04T16:24:35.909Z,102070.53
2022-12-04T16:29:35.893Z,102070.38
2022-12-04T16:34:40.185Z,102074.69
2022-12-04T16:39:41.830Z,102073.91
2022-12-04T16:44:40.845Z,102064.16
2022-12-04T16:49:37.710Z,102078.06
2022-12-04T16:54:37.484Z,102073.63
2022-12-04T16:59:33.997Z,102077.94
2022-12-04T17:04:31.180Z,102083.09
2022-12-04T17:09:27.880Z,102085.72
2022-12-04T17:14:24.492Z,102083.94
2022-12-04T17:19:22.138Z,102091.84
2022-12-04T17:24:18.781Z,102094.47
2022-12-04T17:29:15.317Z,102104.97
2022-12-04T17:34:11.920Z,102111.06
2022-12-04T17:39:11.747Z,102112.72
2022-12-04T17:44:08.264Z,102111.81
2022-12-04T17:49:07.342Z,102120.63
2022-12-04T17:54:10.760Z,102121.47
2022-12-04T17:59:12.228Z,102098.16
2022-12-04T18:04:25.393Z,102115.31
2022-12-04T18:09:25.661Z,102110.00
2022-12-04T18:14:24.045Z,102112.47
2022-12-04T18:19:26.940Z,102115.97
2022-12-04T18:24:25.331Z,102115.84
2022-12-04T18:29:24.700Z,102110.56
2022-12-04T18:34:21.918Z,102121.16
2022-12-04T18:39:21.142Z,102127.31
2022-12-04T18:44:24.336Z,102122.97
2022-12-04T18:49:21.467Z,102133.50
2022-12-04T18:54:23.144Z,102134.34
2022-12-04T18:59:24.972Z,102111.59
2022-12-04T19:04:23.318Z,102119.44
2022-12-04T19:10:10.475Z,102123.81
2022-12-04T19:14:43.857Z,102128.25
2022-12-04T19:19:41.329Z,102129.97
2022-12-04T19:24:38.554Z,102130.88
2022-12-04T19:29:44.138Z,102130.84
2022-12-04T19:34:43.765Z,102129.06
2022-12-04T19:39:43.059Z,102131.63
2022-12-04T19:44:48.245Z,102131.63
2022-12-04T19:49:46.685Z,102129.03
2022-12-04T19:54:43.492Z,102123.81
2022-12-04T19:59:46.762Z,102115.91
2022-12-04T20:04:46.888Z,102120.28
2022-12-04T20:09:51.959Z,102121.09
2022-12-04T20:14:52.412Z,102107.09
2022-12-04T20:19:49.565Z,102114.16
2022-12-04T20:24:46.465Z,102105.34
2022-12-04T20:29:46.170Z,102108.81
2022-12-04T20:34:43.942Z,102100.06
2022-12-04T20:39:42.583Z,102094.81
2022-12-04T20:44:41.765Z,102088.47
2022-12-04T20:49:41.605Z,102087.59
2022-12-04T20:54:41.562Z,102077.94
2022-12-04T20:59:40.591Z,102092.94
2022-12-04T21:04:38.313Z,102087.59
2022-12-04T21:09:37.570Z,102081.31
2022-12-04T21:14:52.960Z,102078.78
2022-12-04T21:19:53.591Z,102081.41
2022-12-04T21:24:52.713Z,102070.22
